createdAt,value
2017-02-21T00:00:17.649Z,996.11
2017-02-21T00:01:27.643Z,996
2017-02-21T00:02:38.435Z,996.08
2017-02-21T00:03:48.850Z,996.01
2017-02-21T00:04:59.618Z,995.98
2017-02-21T00:06:10.457Z,996.07
2017-02-21T00:07:21.273Z,995.91
2017-02-21T00:08:32.045Z,995.92
2017-02-21T00:09:42.866Z,995.93
2017-02-21T00:10:53.272Z,995.89
2017-02-21T00:12:04.074Z,995.95
2017-02-21T00:13:14.491Z,995.95
2017-02-21T00:14:24.473Z,995.94
2017-02-21T00:15:35.271Z,995.81
2017-02-21T00:16:46.132Z,995.81
2017-02-21T00:17:56.924Z,995.9
2017-02-21T00:19:07.717Z,995.94
2017-02-21T00:20:17.701Z,995.87
2017-02-21T00:21:28.482Z,995.92
2017-02-21T00:22:39.252Z,995.92
2017-02-21T00:23:50.045Z,995.85
2017-02-21T00:25:00.822Z,995.84
2017-02-21T00:26:11.604Z,995.96
2017-02-21T00:27:22.402Z,995.84
2017-02-21T00:28:32.402Z,995.95
2017-02-21T00:29:42.796Z,995.92
2017-02-21T00:30:53.176Z,995.86
2017-02-21T00:32:03.945Z,995.93
2017-02-21T00:33:14.756Z,995.74
2017-02-21T00:34:25.532Z,995.84
2017-02-21T00:35:36.318Z,995.81
2017-02-21T00:36:47.124Z,995.65
2017-02-21T00:37:57.932Z,995.78
2017-02-21T00:39:07.548Z,995.72
2017-02-21T00:40:17.580Z,995.66
2017-02-21T00:41:28.379Z,995.61
2017-02-21T00:42:39.161Z,995.56
2017-02-21T00:43:49.355Z,995.6
2017-02-21T00:45:00.124Z,995.71
2017-02-21T00:46:10.498Z,995.76
2017-02-21T00:47:21.271Z,995.63
2017-02-21T00:48:32.044Z,995.61
2017-02-21T00:49:42.836Z,995.52
2017-02-21T00:50:53.604Z,995.59
2017-02-21T00:52:04.392Z,995.59
2017-02-21T00:53:15.174Z,995.68
2017-02-21T00:54:25.957Z,995.62
2017-02-21T00:55:36.356Z,995.65
2017-02-21T00:56:47.150Z,995.6
2017-02-21T00:57:57.540Z,995.34
2017-02-21T00:59:08.333Z,995.37
2017-02-21T01:00:19.117Z,995.35
2017-02-21T01:01:29.509Z,995.24
2017-02-21T01:02:39.893Z,995.26
2017-02-21T01:03:50.697Z,995.27
2017-02-21T01:05:01.488Z,995.25
2017-02-21T01:06:12.274Z,995.2
2017-02-21T01:07:23.061Z,995.24
2017-02-21T01:08:33.450Z,995.22
2017-02-21T01:09:43.833Z,995.28
2017-02-21T01:10:54.221Z,994.99
2017-02-21T01:12:04.989Z,995.34
2017-02-21T01:13:15.822Z,995.32
2017-02-21T01:14:26.687Z,995.23
2017-02-21T01:15:37.062Z,995.27
2017-02-21T01:16:47.049Z,995.18
2017-02-21T01:17:57.862Z,995.21
2017-02-21T01:19:08.642Z,995.2
2017-02-21T01:20:19.027Z,995.2
2017-02-21T01:21:29.821Z,995.05
2017-02-21T01:22:40.627Z,995.09
2017-02-21T01:23:51.030Z,995.13
2017-02-21T01:25:01.814Z,995.13
2017-02-21T01:26:12.197Z,995.07
2017-02-21T01:27:22.594Z,995.11
2017-02-21T01:28:32.975Z,995.34
2017-02-21T01:29:43.358Z,995.08
2017-02-21T01:30:53.427Z,995.05
2017-02-21T01:32:04.232Z,995.1
2017-02-21T01:33:13.828Z,995.14
2017-02-21T01:34:24.608Z,995.09
2017-02-21T01:35:35.021Z,995.01
2017-02-21T01:36:45.008Z,995.05
2017-02-21T01:37:55.784Z,995.09
2017-02-21T01:39:06.172Z,995.03
2017-02-21T01:40:16.956Z,994.97
2017-02-21T01:41:27.362Z,995
2017-02-21T01:42:37.743Z,994.94
2017-02-21T01:43:48.128Z,995.13
2017-02-21T01:44:58.125Z,994.93
2017-02-21T01:46:08.126Z,994.99
2017-02-21T01:47:18.529Z,994.97
2017-02-21T01:48:29.302Z,994.87
2017-02-21T01:49:39.719Z,994.9
2017-02-21T01:50:50.100Z,995.04
2017-02-21T01:52:00.918Z,995.05
2017-02-21T01:53:10.903Z,995.04
2017-02-21T01:54:21.309Z,994.89
2017-02-21T01:55:32.106Z,994.89
2017-02-21T01:56:42.889Z,995.06
2017-02-21T01:57:53.686Z,995.08
2017-02-21T01:59:04.476Z,994.75
2017-02-21T02:00:14.862Z,994.55
2017-02-21T02:01:25.259Z,994.82
2017-02-21T02:02:35.252Z,994.55
2017-02-21T02:03:46.034Z,994.79
2017-02-21T02:04:56.810Z,994.84
2017-02-21T02:06:07.630Z,994.65
2017-02-21T02:07:18.432Z,994.58
2017-02-21T02:08:29.204Z,994.54
2017-02-21T02:09:39.576Z,994.41
2017-02-21T02:10:49.985Z,994.66
2017-02-21T02:12:00.363Z,994.61
2017-02-21T02:13:10.358Z,994.57
2017-02-21T02:14:21.148Z,994.52
2017-02-21T02:15:31.526Z,994.57
2017-02-21T02:16:41.967Z,994.56
2017-02-21T02:17:52.790Z,994.61
2017-02-21T02:19:03.179Z,994.48
2017-02-21T02:20:13.183Z,994.68
2017-02-21T02:21:23.969Z,994.47
2017-02-21T02:22:34.736Z,994.4
2017-02-21T02:23:44.723Z,994.53
2017-02-21T02:24:54.710Z,994.69
2017-02-21T02:26:04.705Z,994.51
2017-02-21T02:27:15.493Z,994.53
2017-02-21T02:28:26.264Z,994.48
2017-02-21T02:29:36.674Z,994.28
2017-02-21T02:30:47.046Z,994.61
2017-02-21T02:31:57.050Z,994.58
2017-02-21T02:33:07.837Z,994.5
2017-02-21T02:34:18.625Z,994.44
2017-02-21T02:35:29.419Z,994.2
2017-02-21T02:36:39.407Z,994.35
2017-02-21T02:37:50.177Z,994.25
2017-02-21T02:39:00.571Z,994.24
2017-02-21T02:40:10.586Z,994.12
2017-02-21T02:41:20.958Z,994.27
2017-02-21T02:42:31.734Z,994.16
2017-02-21T02:43:42.141Z,994.22
2017-02-21T02:44:52.913Z,994.18
2017-02-21T02:46:03.311Z,994.23
2017-02-21T02:47:14.127Z,994.2
2017-02-21T02:48:24.098Z,994.19
2017-02-21T02:49:34.514Z,994.25
2017-02-21T02:50:45.304Z,994.2
2017-02-21T02:51:55.713Z,994.14
2017-02-21T02:53:06.499Z,994.13
2017-02-21T02:54:16.880Z,994.05
2017-02-21T02:55:27.274Z,994.14
2017-02-21T02:56:37.650Z,994.12
2017-02-21T02:57:47.637Z,994.2
2017-02-21T02:58:58.418Z,994.18
2017-02-21T03:00:09.226Z,994.01
2017-02-21T03:01:19.621Z,994.05
2017-02-21T03:32:37.072Z,994.28
2017-02-21T03:33:47.038Z,994.13
2017-02-21T03:34:57.411Z,994.03
2017-02-21T03:36:07.776Z,994.09
2017-02-21T03:37:17.769Z,993.92
2017-02-21T03:38:28.158Z,994.05
2017-02-21T03:39:37.768Z,994.14
2017-02-21T03:40:48.567Z,993.94
2017-02-21T03:41:59.373Z,993.89
2017-02-21T03:43:10.144Z,993.99
2017-02-21T03:44:20.546Z,993.86
2017-02-21T03:45:30.991Z,993.85
2017-02-21T03:46:41.778Z,993.83
2017-02-21T03:47:51.765Z,993.76
2017-02-21T03:49:01.777Z,993.87
2017-02-21T03:50:12.154Z,993.99
2017-02-21T03:51:22.925Z,993.82
2017-02-21T03:52:33.709Z,993.79
2017-02-21T03:53:44.092Z,993.65
2017-02-21T03:54:54.870Z,993.75
2017-02-21T03:56:05.253Z,993.66
2017-02-21T03:57:16.065Z,993.8
2017-02-21T03:58:26.470Z,993.86
2017-02-21T03:59:36.858Z,993.93
2017-02-21T04:00:47.264Z,993.71
2017-02-21T04:01:58.288Z,993.81
2017-02-21T04:03:09.080Z,993.77
2017-02-21T04:04:19.062Z,993.8
2017-02-21T04:05:29.867Z,993.77
2017-02-21T04:06:40.265Z,993.82
2017-02-21T04:07:51.065Z,993.82
2017-02-21T04:09:01.864Z,993.77
2017-02-21T04:10:12.639Z,993.85
2017-02-21T04:11:23.003Z,993.81
2017-02-21T04:12:33.784Z,993.78
2017-02-21T04:13:44.546Z,993.72
2017-02-21T04:14:54.962Z,993.78
2017-02-21T04:16:05.435Z,993.94
2017-02-21T04:17:16.214Z,993.95
2017-02-21T04:18:26.584Z,993.92
2017-02-21T04:19:37.004Z,993.89
2017-02-21T04:20:46.997Z,993.85
2017-02-21T04:21:57.780Z,993.88
2017-02-21T04:23:07.806Z,993.82
2017-02-21T04:24:18.270Z,993.91
2017-02-21T04:25:28.651Z,993.86
2017-02-21T04:26:39.418Z,993.84
2017-02-21T04:27:50.200Z,993.9
2017-02-21T04:29:00.995Z,993.8
2017-02-21T04:30:11.775Z,993.77
2017-02-21T04:31:22.567Z,993.74
2017-02-21T04:32:33.350Z,993.78
2017-02-21T04:33:44.136Z,993.7
2017-02-21T04:34:54.528Z,993.62
2017-02-21T04:36:05.338Z,993.69
2017-02-21T04:37:15.754Z,993.66
2017-02-21T04:38:26.148Z,993.69
2017-02-21T04:39:36.415Z,993.67
2017-02-21T04:40:47.219Z,993.54
2017-02-21T04:41:58.007Z,993.59
2017-02-21T04:43:08.795Z,993.54
2017-02-21T04:44:19.187Z,993.52
2017-02-21T04:45:29.999Z,993.54
2017-02-21T04:46:40.377Z,993.49
2017-02-21T04:47:51.237Z,993.56
2017-02-21T04:49:01.644Z,993.38
2017-02-21T04:50:11.653Z,993.47
2017-02-21T04:51:22.040Z,993.43
2017-02-21T04:52:32.090Z,993.59
2017-02-21T04:53:42.481Z,993.43
2017-02-21T04:54:52.877Z,993.49
2017-02-21T04:56:03.580Z,993.57
2017-02-21T04:57:13.570Z,993.57
2017-02-21T04:58:24.349Z,993.48
2017-02-21T04:59:35.135Z,993.47
2017-02-21T05:00:45.506Z,993.47
2017-02-21T05:01:55.878Z,993.55
2017-02-21T05:03:05.876Z,993.48
2017-02-21T05:04:16.704Z,993.52
2017-02-21T05:05:27.099Z,993.42
2017-02-21T05:06:37.471Z,993.4
2017-02-21T05:07:47.876Z,993.44
2017-02-21T05:08:58.264Z,993.38
2017-02-21T05:10:08.653Z,993.37
2017-02-21T05:11:19.062Z,993.39
2017-02-21T05:12:29.471Z,993.29
2017-02-21T05:13:39.473Z,993.31
2017-02-21T05:14:49.469Z,993.33
2017-02-21T05:15:59.868Z,993.28
2017-02-21T05:17:10.642Z,993.3
2017-02-21T05:18:21.047Z,993.31
2017-02-21T05:19:31.444Z,993.31
2017-02-21T05:20:42.258Z,993.28
2017-02-21T05:21:52.666Z,993.21
2017-02-21T05:23:02.667Z,993.25
2017-02-21T05:24:12.668Z,993.2
2017-02-21T05:25:23.446Z,993.23
2017-02-21T05:26:33.821Z,993.25
2017-02-21T05:27:44.202Z,993.2
2017-02-21T05:28:54.606Z,993.22
2017-02-21T05:30:04.984Z,993.23
2017-02-21T05:31:14.965Z,993.21
2017-02-21T05:32:25.753Z,993.19
2017-02-21T05:33:35.362Z,993.33
2017-02-21T05:34:45.362Z,993.21
2017-02-21T05:35:55.773Z,993.22
2017-02-21T05:37:06.552Z,993.21
2017-02-21T05:38:16.924Z,993.25
2017-02-21T05:39:27.315Z,993.29
2017-02-21T05:40:37.342Z,993.24
2017-02-21T05:41:47.323Z,993.21
2017-02-21T05:42:57.721Z,993.26
2017-02-21T05:44:08.525Z,993.34
2017-02-21T05:45:19.344Z,993.39
2017-02-21T05:46:30.144Z,993.24
2017-02-21T05:47:39.766Z,993.25
2017-02-21T05:48:49.746Z,993.32
2017-02-21T05:50:00.120Z,993.29
2017-02-21T05:51:09.978Z,993.35
2017-02-21T05:52:20.740Z,993.49
2017-02-21T05:53:31.571Z,993.3
2017-02-21T05:54:42.350Z,993.3
2017-02-21T05:55:52.333Z,993.39
2017-02-21T05:57:03.148Z,993.44
2017-02-21T05:58:13.541Z,993.37
2017-02-21T05:59:24.309Z,993.37
2017-02-21T06:00:34.701Z,993.43
2017-02-21T06:01:45.099Z,993.51
2017-02-21T06:02:55.489Z,993.44
2017-02-21T06:04:06.291Z,993.51
2017-02-21T06:05:17.082Z,993.46
2017-02-21T06:06:27.849Z,993.58
2017-02-21T06:07:38.256Z,993.78
2017-02-21T06:08:48.266Z,993.55
2017-02-21T06:09:58.283Z,993.58
2017-02-21T06:11:08.676Z,993.66
2017-02-21T06:12:19.477Z,993.57
2017-02-21T06:13:29.863Z,993.53
2017-02-21T06:14:39.865Z,993.77
2017-02-21T06:15:50.679Z,993.7
2017-02-21T06:17:00.669Z,993.63
2017-02-21T06:18:11.052Z,993.67
2017-02-21T06:19:21.842Z,993.6
2017-02-21T06:20:32.235Z,993.73
2017-02-21T06:21:42.650Z,993.6
2017-02-21T06:22:53.105Z,993.77
2017-02-21T06:24:03.901Z,993.75
2017-02-21T06:25:14.723Z,993.77
2017-02-21T06:26:25.114Z,993.78
2017-02-21T06:27:35.124Z,993.8
2017-02-21T06:28:45.520Z,993.76
2017-02-21T06:29:56.311Z,993.71
2017-02-21T06:31:06.709Z,993.8
2017-02-21T06:32:16.714Z,993.86
2017-02-21T06:33:27.105Z,993.83
2017-02-21T06:34:37.886Z,993.81
2017-02-21T06:35:48.295Z,993.77
2017-02-21T06:36:58.273Z,993.92
2017-02-21T06:38:08.661Z,993.83
2017-02-21T06:39:19.060Z,993.81
2017-02-21T06:40:29.475Z,993.87
2017-02-21T06:41:39.865Z,993.77
2017-02-21T06:42:50.261Z,993.93
2017-02-21T06:44:01.061Z,993.92
2017-02-21T06:45:11.831Z,993.99
2017-02-21T06:46:21.828Z,993.88
2017-02-21T06:47:32.618Z,993.92
2017-02-21T06:48:43.410Z,993.89
2017-02-21T06:49:54.203Z,993.94
2017-02-21T06:51:04.619Z,993.9
2017-02-21T06:52:15.404Z,993.89
2017-02-21T06:53:26.196Z,993.85
2017-02-21T06:54:36.218Z,993.86
2017-02-21T06:55:47.006Z,993.82
2017-02-21T06:56:57.786Z,993.73
2017-02-21T06:58:08.579Z,993.77
2017-02-21T06:59:18.576Z,993.87
2017-02-21T07:00:29.344Z,993.73
2017-02-21T07:01:40.139Z,993.69
2017-02-21T07:02:50.507Z,993.75
2017-02-21T07:04:01.290Z,993.72
2017-02-21T07:05:11.676Z,993.7
2017-02-21T07:06:22.057Z,993.67
2017-02-21T07:07:32.450Z,993.72
2017-02-21T07:08:43.305Z,993.64
2017-02-21T07:09:54.067Z,993.7
2017-02-21T07:11:04.482Z,993.73
2017-02-21T07:12:15.262Z,993.62
2017-02-21T07:13:25.657Z,993.68
2017-02-21T07:14:36.448Z,993.63
2017-02-21T07:15:47.142Z,993.66
2017-02-21T07:16:57.553Z,993.6
2017-02-21T07:18:07.919Z,993.47
2017-02-21T07:19:18.312Z,993.59
2017-02-21T07:20:29.119Z,993.57
2017-02-21T07:21:39.497Z,993.64
2017-02-21T07:22:49.898Z,993.66
2017-02-21T07:24:00.297Z,993.66
2017-02-21T07:25:10.696Z,993.67
2017-02-21T07:26:21.067Z,993.53
2017-02-21T07:27:31.467Z,993.6
2017-02-21T07:28:41.861Z,993.62
2017-02-21T07:29:52.637Z,993.72
2017-02-21T07:31:02.654Z,993.6
2017-02-21T07:32:13.439Z,993.5
2017-02-21T07:33:24.223Z,993.47
2017-02-21T07:34:34.604Z,993.53
2017-02-21T07:35:45.031Z,993.47
2017-02-21T07:36:55.806Z,993.44
2017-02-21T07:38:06.204Z,993.49
2017-02-21T07:39:16.985Z,993.47
2017-02-21T07:40:27.785Z,993.45
2017-02-21T07:41:38.174Z,993.53
2017-02-21T07:42:48.579Z,993.54
2017-02-21T07:43:59.362Z,993.55
2017-02-21T07:45:09.379Z,993.58
2017-02-21T07:46:20.187Z,993.51
2017-02-21T07:47:30.989Z,993.61
2017-02-21T07:48:41.773Z,993.59
2017-02-21T07:49:52.546Z,993.57
2017-02-21T07:51:02.948Z,993.54
2017-02-21T07:52:13.725Z,993.56
2017-02-21T07:53:24.501Z,993.61
2017-02-21T07:54:35.291Z,993.61
2017-02-21T07:55:45.751Z,993.62
2017-02-21T07:56:55.755Z,993.65
2017-02-21T07:58:06.138Z,993.63
2017-02-21T07:59:16.931Z,993.68
2017-02-21T08:00:26.521Z,993.62
2017-02-21T08:01:36.539Z,993.54
2017-02-21T08:02:46.596Z,993.48
2017-02-21T08:03:57.402Z,993.56
2017-02-21T08:05:07.803Z,993.59
2017-02-21T08:06:18.195Z,993.58
2017-02-21T08:07:28.977Z,993.63
2017-02-21T08:08:39.363Z,993.62
2017-02-21T08:09:48.564Z,993.59
2017-02-21T08:10:59.104Z,993.6
2017-02-21T08:12:09.882Z,993.56
2017-02-21T08:13:20.291Z,993.56
2017-02-21T08:14:29.916Z,993.54
2017-02-21T08:15:40.318Z,993.58
2017-02-21T08:16:51.121Z,993.64
2017-02-21T08:18:01.519Z,993.6
2017-02-21T08:19:12.305Z,993.51
2017-02-21T08:20:23.131Z,993.53
2017-02-21T08:21:33.146Z,993.54
2017-02-21T08:22:43.530Z,993.59
2017-02-21T08:23:53.543Z,993.63
2017-02-21T08:25:04.347Z,993.59
2017-02-21T08:26:15.181Z,993.61
2017-02-21T08:27:25.986Z,993.62
2017-02-21T08:28:36.780Z,993.62
2017-02-21T08:29:47.180Z,993.63
2017-02-21T08:30:57.574Z,993.62
2017-02-21T08:32:07.573Z,993.66
2017-02-21T08:33:18.368Z,993.72
2017-02-21T08:34:29.146Z,993.66
2017-02-21T08:35:39.161Z,993.69
2017-02-21T08:36:49.559Z,993.69
2017-02-21T08:38:00.351Z,993.76
2017-02-21T08:39:10.749Z,993.67
2017-02-21T08:40:21.543Z,993.66
2017-02-21T08:41:31.541Z,993.72
2017-02-21T08:42:42.000Z,993.62
2017-02-21T08:43:52.797Z,993.7
2017-02-21T08:45:03.223Z,993.68
2017-02-21T08:46:12.863Z,993.68
2017-02-21T08:47:23.662Z,993.68
2017-02-21T08:48:33.685Z,993.67
2017-02-21T08:49:43.702Z,993.65
2017-02-21T08:50:53.698Z,993.67
2017-02-21T08:52:03.295Z,993.73
2017-02-21T08:53:13.707Z,993.71
2017-02-21T08:54:24.506Z,993.68
2017-02-21T08:55:34.936Z,993.68
2017-02-21T08:56:45.325Z,993.71
2017-02-21T08:57:56.112Z,993.7
2017-02-21T08:59:06.914Z,993.71
2017-02-21T09:00:17.286Z,993.74
2017-02-21T09:01:27.287Z,993.71
2017-02-21T09:02:38.092Z,993.7
2017-02-21T09:03:48.912Z,993.71
2017-02-21T09:04:58.925Z,993.71
2017-02-21T09:06:09.761Z,993.72
2017-02-21T09:07:20.177Z,993.76
2017-02-21T09:08:30.979Z,993.67
2017-02-21T09:09:41.395Z,993.71
2017-02-21T09:10:52.190Z,993.67
2017-02-21T09:12:02.596Z,993.69
2017-02-21T09:13:12.600Z,993.72
2017-02-21T09:14:23.016Z,993.71
2017-02-21T09:15:33.011Z,993.71
2017-02-21T09:16:43.801Z,993.7
2017-02-21T09:17:53.797Z,993.76
2017-02-21T09:19:04.589Z,993.75
2017-02-21T09:20:15.016Z,993.78
2017-02-21T09:21:25.792Z,993.76
2017-02-21T09:22:36.190Z,993.81
2017-02-21T09:23:46.992Z,993.81
2017-02-21T09:24:57.762Z,993.82
2017-02-21T09:26:07.360Z,993.86
2017-02-21T09:27:17.746Z,993.82
2017-02-21T09:28:28.787Z,993.87
2017-02-21T09:29:39.182Z,993.83
2017-02-21T09:30:49.219Z,993.85
2017-02-21T09:31:59.244Z,993.81
2017-02-21T09:33:10.020Z,993.78
2017-02-21T09:34:20.805Z,993.83
2017-02-21T09:35:31.621Z,993.81
2017-02-21T09:36:41.612Z,993.74
2017-02-21T09:37:52.406Z,993.76
2017-02-21T09:39:02.800Z,993.77
2017-02-21T09:40:13.234Z,993.79
2017-02-21T09:41:24.015Z,993.72
2017-02-21T09:42:34.819Z,993.7
2017-02-21T09:43:45.223Z,993.73
2017-02-21T09:44:55.635Z,993.72
2017-02-21T09:46:05.641Z,993.67
2017-02-21T09:47:15.643Z,993.64
2017-02-21T09:48:26.076Z,993.63
2017-02-21T09:49:36.458Z,993.63
2017-02-21T09:50:46.856Z,993.61
2017-02-21T09:51:56.876Z,993.61
2017-02-21T09:53:07.257Z,993.62
2017-02-21T09:54:18.053Z,993.57
2017-02-21T09:55:27.645Z,993.56
2017-02-21T09:56:38.437Z,993.59
2017-02-21T09:57:48.829Z,993.63
2017-02-21T09:58:59.601Z,993.61
2017-02-21T10:00:10.006Z,993.58
2017-02-21T10:01:20.818Z,993.65
2017-02-21T10:02:31.216Z,993.56
2017-02-21T10:03:41.608Z,993.59
2017-02-21T10:04:52.034Z,993.6
2017-02-21T10:06:02.430Z,993.57
2017-02-21T10:07:12.813Z,993.59
2017-02-21T10:08:23.617Z,993.58
2017-02-21T10:09:33.627Z,993.71
2017-02-21T10:10:44.422Z,993.6
2017-02-21T10:11:54.865Z,993.59
2017-02-21T10:13:05.317Z,993.63
2017-02-21T10:14:16.102Z,993.61
2017-02-21T10:15:26.893Z,993.55
2017-02-21T10:16:37.681Z,993.56
2017-02-21T10:17:48.460Z,993.5
2017-02-21T10:18:58.860Z,993.56
2017-02-21T10:20:08.889Z,993.61
2017-02-21T10:21:18.919Z,993.55
2017-02-21T10:22:28.908Z,993.58
2017-02-21T10:23:39.330Z,993.48
2017-02-21T10:24:49.742Z,993.43
2017-02-21T10:26:00.135Z,993.43
2017-02-21T10:27:10.941Z,993.42
2017-02-21T10:28:21.750Z,993.42
2017-02-21T10:29:32.576Z,993.39
2017-02-21T10:30:42.567Z,993.4
2017-02-21T10:31:53.438Z,993.37
2017-02-21T10:33:04.239Z,993.4
2017-02-21T10:34:14.623Z,993.35
2017-02-21T10:35:25.039Z,993.39
2017-02-21T10:36:35.437Z,993.39
2017-02-21T10:37:45.830Z,993.34
2017-02-21T10:38:56.651Z,993.28
2017-02-21T10:40:07.053Z,993.33
2017-02-21T10:41:17.849Z,993.29
2017-02-21T10:42:28.249Z,993.29
2017-02-21T10:43:38.647Z,993.24
2017-02-21T10:44:49.080Z,993.26
2017-02-21T10:45:59.090Z,993.23
2017-02-21T10:47:09.527Z,993.27
2017-02-21T10:48:19.923Z,993.21
2017-02-21T10:49:30.716Z,993.16
2017-02-21T10:50:41.112Z,993.19
2017-02-21T10:51:51.501Z,993.12
2017-02-21T10:53:01.898Z,993.07
2017-02-21T10:54:12.325Z,993.11
2017-02-21T10:55:22.725Z,993.11
2017-02-21T10:56:33.135Z,993.1
2017-02-21T10:57:44.025Z,993.07
2017-02-21T10:58:54.816Z,993.07
2017-02-21T11:00:04.825Z,993.04
2017-02-21T11:01:15.228Z,993.05
2017-02-21T11:02:25.864Z,993.04
2017-02-21T11:03:36.651Z,993.02
2017-02-21T11:04:47.050Z,993.06
2017-02-21T11:05:57.443Z,993.03
2017-02-21T11:07:08.257Z,993.1
2017-02-21T11:08:19.085Z,993.13
2017-02-21T11:09:29.890Z,993.12
2017-02-21T11:10:40.729Z,993.12
2017-02-21T11:11:51.113Z,993.05
2017-02-21T11:13:01.092Z,993.08
2017-02-21T11:14:10.723Z,993.08
2017-02-21T11:15:20.719Z,993.07
2017-02-21T11:16:31.106Z,992.99
2017-02-21T11:17:41.504Z,993.04
2017-02-21T11:18:51.500Z,993.02
2017-02-21T11:20:02.289Z,993.05
2017-02-21T11:21:12.688Z,993.02
2017-02-21T11:22:23.097Z,993.04
2017-02-21T11:23:33.903Z,993.02
2017-02-21T11:24:44.700Z,993.01
2017-02-21T11:25:55.499Z,992.98
2017-02-21T11:27:06.290Z,992.95
2017-02-21T11:28:17.097Z,992.95
2017-02-21T11:29:27.483Z,992.84
2017-02-21T11:30:38.319Z,992.87
2017-02-21T11:31:48.334Z,992.88
2017-02-21T11:32:58.707Z,992.91
2017-02-21T11:34:09.359Z,992.92
2017-02-21T11:35:19.357Z,992.86
2017-02-21T11:36:29.743Z,992.86
2017-02-21T11:37:40.123Z,992.88
2017-02-21T11:38:50.547Z,992.88
2017-02-21T11:40:01.352Z,992.88
2017-02-21T11:41:12.144Z,992.83
2017-02-21T11:42:21.750Z,992.82
2017-02-21T11:43:32.148Z,992.84
2017-02-21T11:44:42.142Z,992.87
2017-02-21T11:45:52.937Z,992.86
2017-02-21T11:47:03.726Z,992.81
2017-02-21T11:48:14.541Z,992.89
2017-02-21T11:49:24.918Z,992.92
2017-02-21T11:50:35.718Z,992.91
2017-02-21T11:51:46.119Z,992.9
2017-02-21T11:52:56.899Z,992.93
2017-02-21T11:54:06.914Z,992.92
2017-02-21T11:55:17.690Z,992.85
2017-02-21T11:56:28.510Z,992.87
2017-02-21T11:57:39.291Z,992.87
2017-02-21T11:58:49.291Z,992.86
2017-02-21T12:00:00.094Z,992.85
2017-02-21T12:01:10.095Z,992.88
2017-02-21T12:02:20.493Z,992.86
2017-02-21T12:03:30.877Z,992.83
2017-02-21T12:04:41.942Z,992.81
2017-02-21T12:05:52.719Z,992.82
2017-02-21T12:07:03.103Z,992.82
2017-02-21T12:08:13.879Z,992.84
2017-02-21T12:09:24.270Z,992.76
2017-02-21T12:10:35.069Z,992.73
2017-02-21T12:11:45.490Z,992.82
2017-02-21T12:12:56.274Z,992.84
2017-02-21T12:14:07.067Z,992.82
2017-02-21T12:15:17.467Z,992.8
2017-02-21T12:16:27.486Z,992.81
2017-02-21T12:17:38.257Z,992.74
2017-02-21T12:18:48.277Z,992.83
2017-02-21T12:19:58.288Z,992.84
2017-02-21T12:21:08.820Z,992.83
2017-02-21T12:22:19.201Z,992.85
2017-02-21T12:23:29.981Z,992.76
2017-02-21T12:24:40.784Z,992.81
2017-02-21T12:25:51.192Z,992.83
2017-02-21T12:27:01.993Z,992.86
2017-02-21T12:28:12.485Z,992.88
2017-02-21T12:29:22.918Z,992.86
2017-02-21T12:30:33.317Z,992.81
2017-02-21T12:31:43.750Z,992.91
2017-02-21T12:32:54.174Z,992.76
2017-02-21T12:34:04.553Z,992.86
2017-02-21T12:35:15.337Z,992.9
2017-02-21T12:36:26.162Z,992.87
2017-02-21T12:37:36.940Z,992.87
2017-02-21T12:38:47.751Z,992.87
2017-02-21T12:39:58.558Z,992.83
2017-02-21T12:41:09.331Z,992.93
2017-02-21T12:42:20.125Z,992.92
2017-02-21T12:43:30.914Z,992.88
2017-02-21T12:44:41.699Z,992.83
2017-02-21T12:45:51.713Z,992.91
2017-02-21T12:47:02.115Z,992.95
2017-02-21T12:48:12.515Z,992.94
2017-02-21T12:49:22.917Z,992.86
2017-02-21T12:50:33.352Z,992.89
2017-02-21T12:51:44.482Z,992.9
2017-02-21T12:52:55.288Z,992.88
2017-02-21T12:54:06.079Z,992.84
2017-02-21T12:55:16.106Z,992.77
2017-02-21T12:56:26.498Z,992.79
2017-02-21T12:57:36.890Z,992.79
2017-02-21T12:58:47.306Z,992.84
2017-02-21T12:59:57.336Z,992.82
2017-02-21T13:01:08.128Z,992.83
2017-02-21T13:02:18.541Z,992.86
2017-02-21T13:03:28.556Z,992.79
2017-02-21T13:04:39.398Z,992.82
2017-02-21T13:05:49.408Z,992.93
2017-02-21T13:06:59.800Z,992.91
2017-02-21T13:08:09.808Z,992.84
2017-02-21T13:09:20.217Z,992.85
2017-02-21T13:10:31.008Z,992.79
2017-02-21T13:11:41.814Z,992.77
2017-02-21T13:12:52.240Z,992.82
2017-02-21T13:14:02.629Z,992.79
2017-02-21T13:15:13.427Z,992.74
2017-02-21T13:16:24.226Z,992.68
2017-02-21T13:17:35.068Z,992.72
2017-02-21T13:18:45.066Z,992.77
2017-02-21T13:19:55.448Z,992.69
2017-02-21T13:21:05.853Z,992.69
2017-02-21T13:22:16.292Z,992.72
2017-02-21T13:23:26.696Z,992.77
2017-02-21T13:24:37.528Z,992.79
2017-02-21T13:25:48.323Z,992.72
2017-02-21T13:26:58.321Z,992.62
2017-02-21T13:28:07.928Z,992.68
2017-02-21T13:29:18.350Z,992.65
2017-02-21T13:30:28.369Z,992.68
2017-02-21T13:31:39.154Z,992.56
2017-02-21T13:32:49.151Z,992.63
2017-02-21T13:33:59.988Z,992.68
2017-02-21T13:35:10.368Z,992.74
2017-02-21T13:36:21.145Z,992.68
2017-02-21T13:37:31.157Z,992.7
2017-02-21T13:38:40.763Z,992.6
2017-02-21T13:39:51.174Z,992.69
2017-02-21T13:41:01.194Z,992.6
2017-02-21T13:42:11.209Z,992.67
2017-02-21T13:43:21.626Z,992.61
2017-02-21T13:44:32.402Z,992.58
2017-02-21T13:45:42.832Z,992.6
2017-02-21T13:46:53.209Z,992.6
2017-02-21T13:48:03.615Z,992.58
2017-02-21T13:49:14.034Z,992.58
2017-02-21T13:50:24.421Z,992.53
2017-02-21T13:51:35.239Z,992.43
2017-02-21T13:52:46.038Z,992.51
2017-02-21T13:53:56.452Z,992.48
2017-02-21T13:55:07.251Z,992.39
2017-02-21T13:56:18.024Z,992.38
2017-02-21T13:57:28.423Z,992.49
2017-02-21T13:58:39.234Z,992.4
2017-02-21T13:59:49.639Z,992.36
2017-02-21T14:01:00.042Z,992.36
2017-02-21T14:02:10.473Z,992.36
2017-02-21T14:03:20.885Z,992.28
2017-02-21T14:04:31.280Z,992.39
2017-02-21T14:05:41.693Z,992.31
2017-02-21T14:06:52.094Z,992.29
2017-02-21T14:08:02.886Z,992.37
2017-02-21T14:09:13.934Z,992.32
2017-02-21T14:10:24.329Z,992.26
2017-02-21T14:11:34.725Z,992.29
2017-02-21T14:12:45.518Z,992.34
2017-02-21T14:13:56.299Z,992.33
2017-02-21T14:15:06.317Z,992.26
2017-02-21T14:16:16.703Z,992.24
2017-02-21T14:17:27.116Z,992.23
2017-02-21T14:18:37.925Z,992.32
2017-02-21T14:19:47.934Z,992.22
2017-02-21T14:20:58.355Z,992.26
2017-02-21T14:22:08.392Z,992.14
2017-02-21T14:23:18.802Z,992.19
2017-02-21T14:24:29.176Z,992.15
2017-02-21T14:25:39.967Z,992.26
2017-02-21T14:26:49.959Z,992.21
2017-02-21T14:28:00.751Z,992.18
2017-02-21T14:29:11.553Z,992.17
2017-02-21T14:30:21.549Z,992.23
2017-02-21T14:31:31.545Z,992.16
2017-02-21T14:32:42.413Z,992.12
2017-02-21T14:33:53.218Z,992.15
2017-02-21T14:35:04.019Z,992.2
2017-02-21T14:36:14.862Z,992.18
2017-02-21T14:37:24.864Z,992.21
2017-02-21T14:38:35.675Z,992.27
2017-02-21T14:39:46.468Z,992.25
2017-02-21T14:40:57.264Z,992.23
2017-02-21T14:42:08.058Z,992.21
2017-02-21T14:43:18.839Z,992.34
2017-02-21T14:44:29.624Z,992.25
2017-02-21T14:45:40.016Z,992.3
2017-02-21T14:46:50.019Z,992.28
2017-02-21T14:48:00.824Z,992.25
2017-02-21T14:49:11.629Z,992.52
2017-02-21T14:50:22.443Z,992.41
2017-02-21T14:51:32.825Z,992.43
2017-02-21T14:52:43.197Z,992.59
2017-02-21T14:53:53.985Z,992.56
2017-02-21T14:55:04.373Z,992.5
2017-02-21T14:56:15.156Z,992.51
2017-02-21T14:57:24.752Z,992.49
2017-02-21T14:58:35.555Z,992.49
2017-02-21T14:59:44.769Z,992.6
2017-02-21T15:00:55.555Z,992.53
2017-02-21T15:02:06.391Z,992.35
2017-02-21T15:03:17.163Z,992.55
2017-02-21T15:04:27.536Z,992.45
2017-02-21T15:05:38.355Z,992.44
2017-02-21T15:06:48.767Z,992.57
2017-02-21T15:07:59.218Z,992.65
2017-02-21T15:09:10.020Z,992.62
2017-02-21T15:10:20.425Z,992.73
2017-02-21T15:11:30.809Z,992.73